Time;durP1;ratioP1;P1;durP2;ratioP2;P2;SDS_P1;SDS_P2;PMS_P1;PMS_P2;Temp;Humidity;BMP_temperature;BMP_pressure;BME280_temperature;BME280_humidity;BME280_pressure;Samples;Min_cycle;Max_cycle;Signal;HPM_P1;HPM_P2
2022/11/09 00:01:36;;;;;;;1.85;1.05;;;7.70;99.90;;;;;;5034819;28;20041;-73
2022/11/09 00:04:03;;;;;;;1.02;0.80;;;7.40;99.90;;;;;;5065768;28;20527;-71
2022/11/09 00:06:30;;;;;;;0.50;0.50;;;7.20;99.90;;;;;;5071287;28;20043;-73
2022/11/09 00:08:55;;;;;;;0.40;0.40;;;7.40;99.90;;;;;;5070232;28;20055;-72
2022/11/09 00:11:21;;;;;;;0.60;0.60;;;7.30;99.90;;;;;;5071100;28;20029;-73
2022/11/09 00:13:47;;;;;;;0.87;0.87;;;7.40;99.90;;;;;;5069555;28;20086;-71
2022/11/09 00:16:17;;;;;;;0.93;0.93;;;7.20;99.90;;;;;;5068474;28;20284;-73
2022/11/09 00:18:46;;;;;;;1.92;1.80;;;7.00;99.90;;;;;;5069058;28;20120;-72
2022/11/09 00:21:15;;;;;;;0.60;0.60;;;7.50;99.90;;;;;;5069979;28;20046;-71
2022/11/09 00:23:40;;;;;;;0.65;0.65;;;7.40;99.90;;;;;;5067014;28;20028;-72
2022/11/09 00:26:08;;;;;;;0.80;0.80;;;7.30;99.90;;;;;;5049326;28;20040;-71
2022/11/09 00:28:34;;;;;;;1.25;1.15;;;7.30;99.90;;;;;;5050564;28;20104;-73
2022/11/09 00:31:00;;;;;;;1.30;1.23;;;7.30;99.90;;;;;;5060714;28;20586;-71
2022/11/09 00:33:26;;;;;;;0.40;0.40;;;7.50;99.90;;;;;;5068694;28;20029;-74
2022/11/09 00:35:52;;;;;;;1.00;1.00;;;7.80;99.90;;;;;;5050677;28;20090;-71
2022/11/09 00:38:18;;;;;;;2.22;1.65;;;7.30;99.90;;;;;;5049082;28;20033;-73
2022/11/09 00:40:43;;;;;;;0.80;0.80;;;7.20;99.90;;;;;;5050559;28;20037;-72
2022/11/09 00:43:09;;;;;;;1.53;1.23;;;7.50;99.90;;;;;;5050437;28;20025;-71
2022/11/09 00:45:34;;;;;;;1.70;0.90;;;7.40;99.90;;;;;;5051277;28;20044;-72
2022/11/09 00:48:00;;;;;;;0.83;0.83;;;7.20;99.90;;;;;;5049083;28;20127;-71
2022/11/09 00:50:26;;;;;;;2.20;1.30;;;7.20;99.90;;;;;;5050527;28;20040;-71
2022/11/09 00:52:52;;;;;;;0.80;0.80;;;7.10;99.90;;;;;;5049169;28;20029;-72
2022/11/09 00:55:19;;;;;;;1.60;1.50;;;7.10;99.90;;;;;;5050290;28;20044;-72
2022/11/09 00:57:48;;;;;;;0.60;0.60;;;6.70;99.90;;;;;;5050266;28;20021;-72
2022/11/09 01:00:16;;;;;;;3.05;2.40;;;7.20;99.90;;;;;;5051229;28;20376;-72
2022/11/09 01:02:42;;;;;;;1.88;1.17;;;7.10;99.90;;;;;;5051125;28;20111;-71
2022/11/09 01:05:08;;;;;;;1.20;1.17;;;7.00;99.90;;;;;;5050230;28;20033;-72
2022/11/09 01:07:34;;;;;;;0.70;0.70;;;;;;;;;;5050175;28;20032;-72
2022/11/09 01:09:59;;;;;;;0.70;0.70;;;7.20;99.90;;;;;;5049847;28;20025;-72
2022/11/09 01:12:25;;;;;;;1.53;1.43;;;6.80;99.90;;;;;;5050213;28;20380;-72
2022/11/09 01:14:50;;;;;;;0.43;0.43;;;7.10;99.90;;;;;;5055116;28;20063;-71
2022/11/09 01:17:16;;;;;;;0.40;0.40;;;7.00;99.90;;;;;;5070017;28;20037;-72
2022/11/09 01:19:42;;;;;;;0.67;0.67;;;7.50;99.90;;;;;;5070151;28;20036;-72
2022/11/09 01:22:07;;;;;;;0.70;0.70;;;6.70;99.90;;;;;;5069972;28;20032;-71
2022/11/09 01:24:33;;;;;;;1.53;1.43;;;7.40;99.90;;;;;;5069796;28;20111;-72
2022/11/09 01:26:58;;;;;;;1.70;1.60;;;7.80;99.90;;;;;;5070244;28;20028;-72
2022/11/09 01:29:24;;;;;;;1.57;1.47;;;7.30;99.90;;;;;;5070302;28;20417;-71
2022/11/09 01:31:49;;;;;;;0.77;0.77;;;7.60;99.90;;;;;;5050592;28;20052;-71
2022/11/09 01:34:16;;;;;;;0.53;0.53;;;7.70;99.90;;;;;;5051469;28;20363;-72
2022/11/09 01:36:42;;;;;;;0.60;0.60;;;7.40;99.90;;;;;;5052795;28;20053;-71
2022/11/09 01:39:07;;;;;;;1.43;1.37;;;7.20;99.90;;;;;;5061307;28;20229;-71
2022/11/09 01:41:33;;;;;;;0.40;0.40;;;8.00;99.90;;;;;;5073938;28;20378;-71
2022/11/09 01:44:02;;;;;;;0.93;0.93;;;7.10;99.90;;;;;;5073824;28;20074;-72
2022/11/09 01:46:44;;;;;;;3.60;2.50;;;7.30;99.90;;;;;;5057583;28;20712;-73
2022/11/09 01:49:39;;;;;;;1.33;1.25;;;7.30;99.90;;;;;;5053677;28;20021;-71
2022/11/09 01:52:15;;;;;;;0.68;0.68;;;7.20;99.90;;;;;;5053724;28;20065;-72
2022/11/09 01:54:44;;;;;;;0.73;0.73;;;6.70;99.90;;;;;;5063525;28;20035;-72
2022/11/09 01:57:15;;;;;;;2.95;2.75;;;7.30;99.90;;;;;;5071683;28;20214;-72
2022/11/09 01:59:46;;;;;;;1.45;1.35;;;7.00;99.90;;;;;;5073448;28;20024;-73
2022/11/09 02:02:11;;;;;;;0.68;0.68;;;7.20;99.90;;;;;;5054175;28;20041;-71
2022/11/09 02:04:43;;;;;;;0.87;0.87;;;6.60;99.90;;;;;;5055299;28;20046;-73
2022/11/09 02:07:09;;;;;;;1.27;1.02;;;6.70;99.90;;;;;;5073426;28;20464;-73
2022/11/09 02:09:44;;;;;;;0.60;0.60;;;7.00;99.90;;;;;;5073365;28;20104;-72
2022/11/09 02:12:10;;;;;;;0.63;0.63;;;7.30;99.90;;;;;;5073287;28;20033;-72
2022/11/09 02:14:37;;;;;;;2.25;1.75;;;7.00;99.90;;;;;;5073063;28;20039;-72
2022/11/09 02:17:03;;;;;;;1.98;1.25;;;7.10;99.90;;;;;;5069636;28;20032;-72
2022/11/09 02:19:29;;;;;;;2.10;1.98;;;7.10;99.90;;;;;;5073224;28;20028;-72
2022/11/09 02:21:55;;;;;;;1.37;1.27;;;7.20;99.90;;;;;;5073437;28;20044;-72
2022/11/09 02:24:21;;;;;;;0.60;0.60;;;7.10;99.90;;;;;;5065365;28;20040;-72
2022/11/09 02:26:47;;;;;;;0.60;0.60;;;7.10;99.90;;;;;;5053295;28;20461;-71
2022/11/09 02:29:17;;;;;;;1.95;1.85;;;7.30;99.90;;;;;;5052713;28;20036;-71
2022/11/09 02:31:47;;;;;;;1.95;1.85;;;6.60;99.90;;;;;;5053099;28;20033;-71
2022/11/09 02:34:17;;;;;;;0.40;0.40;;;7.20;99.90;;;;;;5052709;28;20496;-72
2022/11/09 02:36:42;;;;;;;0.63;0.63;;;6.70;99.90;;;;;;5051579;28;20033;-73
2022/11/09 02:39:09;;;;;;;1.50;1.40;;;7.30;99.90;;;;;;5055270;28;20369;-71
2022/11/09 02:41:46;;;;;;;1.25;0.82;;;7.30;99.90;;;;;;5073098;28;20420;-73
2022/11/09 02:44:14;;;;;;;0.90;0.90;;;6.60;99.90;;;;;;5072457;28;20277;-72
2022/11/09 02:46:40;;;;;;;1.77;1.67;;;7.10;99.90;;;;;;5059707;28;20075;-72
2022/11/09 02:49:06;;;;;;;3.03;2.30;;;6.90;99.90;;;;;;5052720;28;20396;-72
2022/11/09 02:51:33;;;;;;;0.80;0.80;;;6.90;99.90;;;;;;5052914;28;20520;-72
2022/11/09 02:53:59;;;;;;;0.50;0.50;;;7.30;99.90;;;;;;5052906;28;20036;-72
2022/11/09 02:56:24;;;;;;;0.77;0.77;;;7.60;99.90;;;;;;5071191;28;20186;-70
2022/11/09 02:58:51;;;;;;;0.93;0.90;;;6.80;99.90;;;;;;5072555;28;20036;-71
2022/11/09 03:01:16;;;;;;;1.20;1.20;;;7.20;99.90;;;;;;5070398;28;20052;-73
2022/11/09 03:03:42;;;;;;;2.80;1.73;;;7.40;99.90;;;;;;5071034;28;20516;-71
2022/11/09 03:06:08;;;;;;;0.70;0.70;;;6.70;99.90;;;;;;5072196;28;20035;-72
2022/11/09 03:08:33;;;;;;;0.37;0.37;;;6.80;99.90;;;;;;5072287;28;20021;-72
2022/11/09 03:10:59;;;;;;;0.60;0.60;;;7.10;99.90;;;;;;5050897;28;20087;-72
2022/11/09 03:13:25;;;;;;;0.88;0.88;;;7.00;99.90;;;;;;5050859;28;20040;-72
2022/11/09 03:15:51;;;;;;;1.60;1.50;;;7.20;99.90;;;;;;5053694;28;20090;-72
2022/11/09 03:18:16;;;;;;;2.20;2.10;;;6.90;99.90;;;;;;5072194;28;20170;-71
2022/11/09 03:20:42;;;;;;;7.70;2.43;;;7.10;99.90;;;;;;5072137;28;20456;-72
2022/11/09 03:23:09;;;;;;;0.50;0.50;;;6.80;99.90;;;;;;5071913;28;20100;-71
2022/11/09 03:25:35;;;;;;;0.82;0.77;;;6.70;99.90;;;;;;5062020;28;20029;-72
2022/11/09 03:28:03;;;;;;;0.90;0.90;;;6.60;99.90;;;;;;5051905;28;20099;-72
2022/11/09 03:30:29;;;;;;;1.00;1.00;;;7.70;99.90;;;;;;5052054;28;20025;-72
2022/11/09 03:33:02;;;;;;;0.30;0.30;;;6.70;99.90;;;;;;5068373;28;20059;-72
2022/11/09 03:35:28;;;;;;;0.40;0.40;;;6.80;99.90;;;;;;5072063;28;20070;-72
2022/11/09 03:37:53;;;;;;;2.33;1.07;;;7.30;99.90;;;;;;5070626;28;20052;-72
2022/11/09 03:40:19;;;;;;;1.53;1.43;;;6.90;99.90;;;;;;5071089;28;20028;-71
2022/11/09 03:42:47;;;;;;;0.40;0.40;;;7.30;99.90;;;;;;5071787;28;20021;-70
2022/11/09 03:45:14;;;;;;;2.05;1.85;;;7.50;99.90;;;;;;5071663;28;20028;-72
2022/11/09 03:47:44;;;;;;;0.95;0.93;;;7.20;99.90;;;;;;5058321;28;20036;-71
2022/11/09 03:50:11;;;;;;;0.95;0.95;;;7.20;99.90;;;;;;5051466;28;20033;-73
2022/11/09 03:52:37;;;;;;;1.50;1.23;;;6.80;99.90;;;;;;5049958;28;20606;-72
2022/11/09 03:55:04;;;;;;;0.80;0.80;;;7.00;99.90;;;;;;5052423;28;20064;-72
2022/11/09 03:57:29;;;;;;;1.25;1.17;;;6.80;99.90;;;;;;5050864;28;20021;-71
2022/11/09 03:59:55;;;;;;;0.77;0.77;;;6.80;99.90;;;;;;5051227;28;20033;-71
2022/11/09 04:02:21;;;;;;;0.50;0.50;;;;;;;;;;5052001;28;20057;-71
2022/11/09 04:04:47;;;;;;;0.40;0.40;;;6.40;99.90;;;;;;5051111;28;20389;-72
2022/11/09 04:07:13;;;;;;;1.50;1.33;;;;;;;;;;5051187;28;20033;-72
2022/11/09 04:09:39;;;;;;;1.93;1.80;;;;;;;;;;5051024;28;20033;-72
2022/11/09 04:12:04;;;;;;;0.67;0.67;;;6.50;99.90;;;;;;5067236;28;20557;-72
2022/11/09 04:14:30;;;;;;;0.60;0.60;;;6.80;99.90;;;;;;5071070;28;20032;-73
2022/11/09 04:16:56;;;;;;;0.83;0.83;;;7.30;99.90;;;;;;5067639;28;20033;-72
2022/11/09 04:19:21;;;;;;;0.87;0.87;;;7.30;99.90;;;;;;5051085;28;20447;-71
2022/11/09 04:21:47;;;;;;;0.50;0.50;;;6.50;99.90;;;;;;5049552;28;20035;-71
2022/11/09 04:24:13;;;;;;;0.60;0.60;;;6.90;99.90;;;;;;5050805;28;20029;-71
2022/11/09 04:26:39;;;;;;;0.70;0.70;;;6.50;99.90;;;;;;5061910;28;20047;-72
2022/11/09 04:29:04;;;;;;;0.70;0.70;;;6.80;99.90;;;;;;5070825;28;20407;-71
2022/11/09 04:31:30;;;;;;;1.13;1.13;;;6.60;99.90;;;;;;5071170;28;20419;-73
2022/11/09 04:33:56;;;;;;;0.83;0.77;;;6.90;99.90;;;;;;5053000;28;20068;-72
2022/11/09 04:36:21;;;;;;;1.23;1.20;;;6.80;99.90;;;;;;5049608;28;20459;-73
2022/11/09 04:38:47;;;;;;;0.40;0.40;;;7.10;99.90;;;;;;5050926;28;20545;-72
2022/11/09 04:41:13;;;;;;;1.37;1.27;;;6.50;99.90;;;;;;5055882;28;20428;-72
2022/11/09 04:43:39;;;;;;;0.50;0.50;;;6.40;99.90;;;;;;5069472;28;20029;-72
2022/11/09 04:46:05;;;;;;;0.70;0.70;;;6.60;99.90;;;;;;5069864;28;20100;-72
2022/11/09 04:48:31;;;;;;;1.47;1.37;;;7.10;99.90;;;;;;5057073;28;20029;-72
2022/11/09 04:51:09;;;;;;;0.68;0.68;;;6.70;99.90;;;;;;5049273;28;20037;-72
2022/11/09 04:53:36;;;;;;;1.98;1.88;;;6.70;99.90;;;;;;5050528;28;20064;-73
2022/11/09 04:56:03;;;;;;;2.00;1.90;;;7.10;99.90;;;;;;5055359;28;20029;-73
2022/11/09 04:58:28;;;;;;;;;;;6.80;99.90;;;;;;5071026;28;20550;-71
2022/11/09 05:00:54;;;;;;;1.35;1.15;;;6.70;99.90;;;;;;5070127;28;19920;-72
2022/11/09 05:03:20;;;;;;;3.73;1.83;;;6.20;99.90;;;;;;5061492;28;20061;-72
2022/11/09 05:05:45;;;;;;;2.83;1.53;;;7.00;99.90;;;;;;5050683;28;20040;-71
2022/11/09 05:08:11;;;;;;;0.70;0.70;;;6.50;99.90;;;;;;5052993;28;20049;-71
2022/11/09 05:10:37;;;;;;;0.90;0.90;;;6.80;99.90;;;;;;5054502;28;20128;-72
2022/11/09 05:13:09;;;;;;;0.73;0.73;;;6.80;99.90;;;;;;5070292;28;20032;-72
2022/11/09 05:15:35;;;;;;;1.05;1.05;;;6.50;99.90;;;;;;5072961;28;20471;-71
2022/11/09 05:18:01;;;;;;;1.10;1.10;;;6.90;99.90;;;;;;5068674;28;20507;-71
2022/11/09 05:20:27;;;;;;;0.88;0.88;;;6.70;99.90;;;;;;5054210;28;20112;-72
2022/11/09 05:25:37;;;;;;;2.25;2.15;;;6.70;99.90;;;;;;5054495;28;20036;-73
2022/11/09 05:28:03;;;;;;;2.10;2.00;;;6.60;99.90;;;;;;5067905;28;20379;-71
2022/11/09 05:30:29;;;;;;;1.50;1.40;;;6.80;99.90;;;;;;5074220;28;20052;-73
2022/11/09 05:32:54;;;;;;;1.13;1.13;;;7.00;99.90;;;;;;5071271;28;20021;-71
2022/11/09 05:35:20;;;;;;;0.73;0.73;;;7.50;99.90;;;;;;5073087;28;20413;-71
2022/11/09 05:37:47;;;;;;;1.57;1.10;;;6.80;99.90;;;;;;5074234;28;20052;-72
2022/11/09 05:40:15;;;;;;;0.40;0.40;;;6.90;99.90;;;;;;5073826;28;20029;-72
2022/11/09 05:42:41;;;;;;;2.55;2.35;;;6.90;99.90;;;;;;5064481;28;20090;-71
2022/11/09 05:45:09;;;;;;;0.77;0.77;;;6.70;99.90;;;;;;5054006;28;20472;-71
2022/11/09 05:47:38;;;;;;;0.55;0.55;;;7.00;99.90;;;;;;5053750;28;20036;-72
2022/11/09 05:50:06;;;;;;;1.33;1.23;;;6.50;99.90;;;;;;5053329;28;20036;-72
2022/11/09 05:52:32;;;;;;;0.77;0.77;;;7.30;99.90;;;;;;5052044;28;20036;-73
2022/11/09 05:54:59;;;;;;;0.90;0.90;;;8.00;99.90;;;;;;5053516;28;20108;-72
2022/11/09 05:57:25;;;;;;;0.60;0.60;;;9.40;99.90;;;;;;5058083;28;20120;-72
2022/11/09 05:59:51;;;;;;;1.45;1.30;;;10.00;99.90;;;;;;5073358;28;20373;-72
2022/11/09 06:02:16;;;;;;;0.83;0.83;;;10.30;99.90;;;;;;5073050;28;20053;-72
2022/11/09 06:04:42;;;;;;;1.40;1.30;;;10.80;99.90;;;;;;5061727;28;20112;-71
2022/11/09 06:07:07;;;;;;;1.10;1.10;;;11.40;99.90;;;;;;5053360;28;20029;-71
2022/11/09 06:09:33;;;;;;;5.00;1.97;;;12.60;99.90;;;;;;5053233;28;20021;-72
2022/11/09 06:11:58;;;;;;;37.43;3.97;;;12.60;99.90;;;;;;5053335;28;20029;-71
2022/11/09 06:14:24;;;;;;;0.50;0.50;;;13.50;99.90;;;;;;5072397;28;20099;-72
2022/11/09 06:16:50;;;;;;;1.57;1.47;;;13.00;99.90;;;;;;5072478;28;20101;-72
2022/11/09 06:19:15;;;;;;;1.60;1.50;;;12.70;99.90;;;;;;5065399;28;20079;-72
2022/11/09 06:21:41;;;;;;;0.73;0.73;;;12.00;99.90;;;;;;5051774;28;20044;-71
2022/11/09 06:24:08;;;;;;;1.00;1.00;;;12.10;99.90;;;;;;5053109;28;20468;-72
2022/11/09 06:26:33;;;;;;;;;;;12.00;99.90;;;;;;5053851;28;20037;-71
2022/11/09 06:28:59;;;;;;;0.63;0.63;;;11.90;99.90;;;;;;5066739;28;19953;-73
2022/11/09 06:31:25;;;;;;;2.95;1.20;;;12.60;99.90;;;;;;5073332;28;20032;-71
2022/11/09 06:33:51;;;;;;;0.60;0.60;;;13.10;99.90;;;;;;5072393;28;20522;-72
2022/11/09 06:36:17;;;;;;;0.93;0.93;;;;;;;;;;5073091;28;20043;-72
2022/11/09 06:38:42;;;;;;;1.20;1.17;;;14.10;99.90;;;;;;5072589;28;20028;-72
2022/11/09 06:41:09;;;;;;;2.00;1.50;;;14.40;99.90;;;;;;5071270;28;21525;-73
2022/11/09 06:43:35;;;;;;;2.17;1.48;;;;;;;;;;5071504;28;20032;-74
2022/11/09 06:46:03;;;;;;;2.08;1.90;;;14.60;99.90;;;;;;5071422;28;20357;-72
2022/11/09 06:48:29;;;;;;;2.60;2.25;;;14.60;99.90;;;;;;5072559;28;20517;-72
2022/11/09 06:50:59;;;;;;;3.73;1.97;;;14.90;99.90;;;;;;5056600;28;20041;-73
2022/11/09 06:53:26;;;;;;;1.95;1.75;;;14.60;99.90;;;;;;5052761;28;20078;-73
2022/11/09 06:55:52;;;;;;;0.80;0.80;;;15.10;99.90;;;;;;5052739;28;20029;-74
2022/11/09 06:58:18;;;;;;;1.50;1.40;;;15.30;99.90;;;;;;5053126;28;20044;-72
2022/11/09 07:00:44;;;;;;;1.50;1.40;;;15.00;99.90;;;;;;5052063;28;20384;-74
2022/11/09 07:03:20;;;;;;;0.85;0.82;;;14.50;99.90;;;;;;5050974;28;20492;-72
2022/11/09 07:05:47;;;;;;;2.20;1.98;;;13.80;99.90;;;;;;5064211;28;20463;-72
2022/11/09 07:08:14;;;;;;;0.60;0.60;;;12.70;99.90;;;;;;5072594;28;20024;-72
2022/11/09 07:10:39;;;;;;;8.30;1.52;;;13.00;99.90;;;;;;5072146;28;20098;-72
2022/11/09 07:13:06;;;;;;;1.87;1.77;;;12.80;99.90;;;;;;5070321;28;20063;-71
2022/11/09 07:15:32;;;;;;;2.30;2.00;;;12.60;99.90;;;;;;5051881;28;20040;-73
2022/11/09 07:17:59;;;;;;;1.38;1.27;;;12.60;99.90;;;;;;5052098;28;20056;-74
2022/11/09 07:20:26;;;;;;;2.15;1.60;;;12.30;99.90;;;;;;5058907;28;20120;-73
2022/11/09 07:22:52;;;;;;;1.15;1.13;;;;;;;;;;5070466;28;20038;-72
2022/11/09 07:25:18;;;;;;;5.73;3.00;;;12.60;99.90;;;;;;5070367;28;20158;-72
2022/11/09 07:27:44;;;;;;;2.97;2.75;;;12.70;99.90;;;;;;5068660;28;20319;-73
2022/11/09 07:30:10;;;;;;;1.20;1.10;;;12.70;99.90;;;;;;5069235;28;20509;-73
2022/11/09 07:32:40;;;;;;;3.70;2.15;;;13.00;99.90;;;;;;5071308;28;20025;-73
2022/11/09 07:35:07;;;;;;;1.85;1.75;;;12.90;99.90;;;;;;5063462;28;20069;-72
2022/11/09 07:37:32;;;;;;;;;;;13.00;99.90;;;;;;5052063;28;20481;-71
2022/11/09 07:39:58;;;;;;;1.33;1.23;;;12.90;99.90;;;;;;5051618;28;20016;-72
2022/11/09 07:42:24;;;;;;;0.97;0.97;;;12.90;99.90;;;;;;5051437;28;20127;-72
2022/11/09 07:44:50;;;;;;;3.00;2.00;;;13.30;99.90;;;;;;5065790;28;20111;-74
2022/11/09 07:47:17;;;;;;;1.70;1.57;;;13.20;99.90;;;;;;5071571;28;20468;-74
2022/11/09 07:49:43;;;;;;;1.88;1.77;;;;;;;;;;5069625;28;20468;-74
2022/11/09 07:52:08;;;;;;;2.45;2.25;;;13.30;99.90;;;;;;5051130;28;20472;-72
2022/11/09 07:54:35;;;;;;;5.77;3.00;;;13.50;99.90;;;;;;5051157;28;20036;-73
2022/11/09 07:57:00;;;;;;;1.98;1.85;;;13.40;99.90;;;;;;5051074;28;20456;-74
2022/11/09 07:59:26;;;;;;;3.97;1.03;;;13.50;99.90;;;;;;5058123;28;20082;-69
2022/11/09 08:01:51;;;;;;;1.40;1.30;;;13.90;99.90;;;;;;5056321;28;20048;-70
2022/11/09 08:04:17;;;;;;;0.83;0.83;;;13.90;99.90;;;;;;5054998;28;20078;-71
2022/11/09 08:06:43;;;;;;;0.80;0.80;;;14.70;99.90;;;;;;5066121;28;20024;-70
2022/11/09 08:09:08;;;;;;;1.50;1.00;;;14.10;99.90;;;;;;5066992;28;20093;-70
2022/11/09 08:11:34;;;;;;;0.57;0.57;;;14.20;99.90;;;;;;5058545;28;20032;-70
2022/11/09 08:13:59;;;;;;;2.43;1.87;;;13.70;99.90;;;;;;5054157;28;20033;-72
2022/11/09 08:16:25;;;;;;;0.83;0.83;;;13.90;99.90;;;;;;5058111;28;20048;-71
2022/11/09 08:18:51;;;;;;;0.77;0.77;;;13.70;99.90;;;;;;5057143;28;20025;-72
2022/11/09 08:21:17;;;;;;;2.20;1.43;;;13.80;99.90;;;;;;5058640;28;20373;-73
2022/11/09 08:23:43;;;;;;;3.15;2.20;;;13.70;99.90;;;;;;5061434;28;20408;-72
2022/11/09 08:26:10;;;;;;;1.60;1.50;;;13.90;99.90;;;;;;5067388;28;20048;-73
2022/11/09 08:28:35;;;;;;;1.75;1.38;;;13.50;99.90;;;;;;5070017;28;20024;-71
2022/11/09 08:31:04;;;;;;;1.10;1.10;;;13.70;99.90;;;;;;5062917;28;20427;-71
2022/11/09 08:33:34;;;;;;;0.88;0.82;;;13.60;99.90;;;;;;5059836;28;20064;-71
2022/11/09 08:36:00;;;;;;;1.50;1.40;;;13.50;99.90;;;;;;5054812;28;20437;-73
2022/11/09 08:38:25;;;;;;;2.57;2.30;;;13.50;99.90;;;;;;5055461;28;20036;-73
2022/11/09 08:40:58;;;;;;;0.77;0.57;;;13.50;99.90;;;;;;5066195;28;20073;-71
2022/11/09 08:43:24;;;;;;;6.13;1.65;;;13.60;99.90;;;;;;5054022;28;20032;-72
2022/11/09 08:45:49;;;;;;;0.80;0.80;;;13.80;99.90;;;;;;5050398;28;20012;-72
2022/11/09 08:48:15;;;;;;;1.07;1.07;;;14.20;99.90;;;;;;5051489;28;20106;-71
2022/11/09 08:50:40;;;;;;;1.50;1.40;;;14.60;99.90;;;;;;5059250;28;20108;-72
2022/11/09 08:53:06;;;;;;;1.53;1.43;;;14.20;99.90;;;;;;5050155;28;20033;-70
2022/11/09 08:55:33;;;;;;;1.33;1.00;;;14.80;99.90;;;;;;5060275;28;20032;-71
2022/11/09 08:58:00;;;;;;;0.90;0.65;;;14.10;99.90;;;;;;5055662;28;20037;-70
2022/11/09 09:00:27;;;;;;;0.50;0.50;;;14.40;99.90;;;;;;5063938;28;20024;-73
2022/11/09 09:02:53;;;;;;;0.47;0.47;;;14.10;99.90;;;;;;5063011;28;20072;-73
2022/11/09 09:05:19;;;;;;;0.63;0.63;;;14.50;99.90;;;;;;5067602;28;20060;-72
2022/11/09 09:07:45;;;;;;;3.17;1.20;;;14.40;99.90;;;;;;5058700;28;20039;-70
2022/11/09 09:10:11;;;;;;;1.23;1.10;;;14.30;99.90;;;;;;5061740;28;20036;-72
2022/11/09 09:12:37;;;;;;;0.50;0.50;;;14.30;99.90;;;;;;5060228;28;20036;-70
2022/11/09 09:15:03;;;;;;;0.50;0.50;;;14.30;99.90;;;;;;5053933;28;20104;-70
2022/11/09 09:17:29;;;;;;;3.00;1.23;;;14.20;99.90;;;;;;5050985;28;20140;-71
2022/11/09 09:19:54;;;;;;;1.17;1.07;;;13.70;99.90;;;;;;5056150;28;20417;-71
2022/11/09 09:22:20;;;;;;;3.30;1.50;;;14.00;99.90;;;;;;5061987;28;20063;-72
2022/11/09 09:24:45;;;;;;;1.60;1.20;;;13.60;99.90;;;;;;5065006;28;20032;-71
2022/11/09 09:27:12;;;;;;;2.50;1.90;;;13.70;99.90;;;;;;5051661;28;20503;-69
2022/11/09 09:29:39;;;;;;;0.57;0.57;;;13.50;99.90;;;;;;5056837;28;20041;-72
2022/11/09 09:32:05;;;;;;;3.92;2.47;;;13.50;99.90;;;;;;5055932;28;20495;-72
2022/11/09 09:34:30;;;;;;;0.77;0.77;;;13.50;99.90;;;;;;5069653;28;20071;-72
2022/11/09 09:36:56;;;;;;;3.27;1.43;;;13.60;99.90;;;;;;5057712;28;20036;-73
2022/11/09 09:39:21;;;;;;;2.27;1.80;;;14.00;99.90;;;;;;5059008;28;20025;-70
2022/11/09 09:42:03;;;;;;;1.13;1.13;;;13.70;99.90;;;;;;5067842;28;20028;-71
2022/11/09 09:44:31;;;;;;;0.55;0.55;;;13.30;99.90;;;;;;5059870;28;20480;-70
2022/11/09 09:47:11;;;;;;;2.17;1.92;;;13.30;99.90;;;;;;5055060;28;20082;-72
2022/11/09 09:49:41;;;;;;;0.50;0.50;;;12.90;99.90;;;;;;5061997;28;20056;-70
2022/11/09 09:52:43;;;;;;;0.75;0.75;;;13.00;99.90;;;;;;5058691;28;20112;-68
2022/11/09 09:55:16;;;;;;;1.13;1.13;;;13.10;99.90;;;;;;5052347;28;20117;-69
2022/11/09 09:57:45;;;;;;;0.50;0.50;;;13.10;99.90;;;;;;5060042;28;20452;-71
2022/11/09 10:00:22;;;;;;;1.48;1.38;;;13.10;99.90;;;;;;5071473;28;20046;-71
2022/11/09 10:02:49;;;;;;;0.75;0.75;;;;;;;;;;5062720;28;20102;-70
2022/11/09 10:05:17;;;;;;;0.90;0.90;;;13.20;99.90;;;;;;5067697;28;20468;-72
2022/11/09 10:07:50;;;;;;;1.48;1.38;;;13.50;99.90;;;;;;5062677;28;20021;-70
2022/11/09 10:10:43;;;;;;;1.17;1.13;;;13.80;99.90;;;;;;5059314;28;20025;-73
2022/11/09 10:13:40;;;;;;;1.45;1.38;;;14.20;99.90;;;;;;5063588;28;20044;-70
2022/11/09 10:16:24;;;;;;;1.45;1.35;;;13.40;99.90;;;;;;5056767;28;20080;-72
2022/11/09 10:19:01;;;;;;;1.70;1.60;;;13.70;99.90;;;;;;5060380;28;20033;-71
2022/11/09 10:21:57;;;;;;;1.02;1.02;;;13.80;99.90;;;;;;5063194;28;20065;-72
2022/11/09 10:25:01;;;;;;;1.10;1.05;;;14.00;99.90;;;;;;5066156;28;20064;-72
2022/11/09 10:27:41;;;;;;;1.48;1.35;;;13.90;99.90;;;;;;5064713;28;20069;-70
2022/11/09 10:30:16;;;;;;;0.85;0.85;;;13.60;99.90;;;;;;5072460;28;20016;-71
2022/11/09 10:32:46;;;;;;;1.50;1.17;;;13.80;99.90;;;;;;5064124;28;20039;-71
2022/11/09 10:35:33;;;;;;;0.60;0.60;;;13.70;99.90;;;;;;5072258;28;20536;-69
2022/11/09 10:37:58;;;;;;;1.30;1.23;;;13.90;99.90;;;;;;5068000;28;20041;-68
2022/11/09 10:40:24;;;;;;;0.70;0.70;;;14.00;99.90;;;;;;5070794;28;20106;-70
2022/11/09 10:42:57;;;;;;;0.70;0.70;;;13.50;99.90;;;;;;5070483;28;20037;-71
2022/11/09 10:45:38;;;;;;;1.40;1.30;;;13.90;99.90;;;;;;5069524;28;20028;-71
2022/11/09 10:48:06;;;;;;;4.57;1.90;;;14.40;99.90;;;;;;5064709;28;20491;-70
2022/11/09 10:50:48;;;;;;;0.75;0.65;;;14.20;99.90;;;;;;5071492;28;20116;-71
2022/11/09 10:53:28;;;;;;;1.55;0.88;;;13.70;99.90;;;;;;5065788;28;20071;-68
2022/11/09 10:55:56;;;;;;;1.00;1.00;;;14.20;99.90;;;;;;5051664;28;20037;-71
2022/11/09 10:58:46;;;;;;;0.50;0.50;;;13.50;99.90;;;;;;5067712;28;20094;-70
2022/11/09 11:01:14;;;;;;;1.75;1.48;;;14.20;99.90;;;;;;5062101;28;20048;-71
2022/11/09 11:03:41;;;;;;;0.80;0.77;;;14.70;99.90;;;;;;5057151;28;20029;-72
2022/11/09 11:06:15;;;;;;;0.57;0.57;;;13.90;99.90;;;;;;5055163;28;20020;-72
2022/11/09 11:08:47;;;;;;;1.13;1.08;;;13.90;99.90;;;;;;5062921;28;20028;-72
2022/11/09 11:11:13;;;;;;;1.70;1.60;;;;;;;;;;5055377;28;20016;-72
2022/11/09 11:13:39;;;;;;;0.53;0.53;;;14.00;99.90;;;;;;5057395;28;20051;-73
2022/11/09 11:16:34;;;;;;;2.55;1.27;;;14.00;99.90;;;;;;5051378;28;20344;-71
2022/11/09 11:19:01;;;;;;;0.60;0.60;;;14.10;99.90;;;;;;5054069;28;20345;-73
2022/11/09 11:21:27;;;;;;;0.98;0.93;;;;;;;;;;5058310;28;20052;-71
2022/11/09 11:24:06;;;;;;;0.57;0.57;;;14.40;99.90;;;;;;5063436;28;20032;-72
2022/11/09 11:26:56;;;;;;;0.90;0.73;;;14.50;99.90;;;;;;5056546;28;20025;-71
2022/11/09 11:29:45;;;;;;;3.10;1.08;;;14.70;99.90;;;;;;5065897;28;20032;-71
2022/11/09 11:32:14;;;;;;;1.15;1.13;;;14.70;99.90;;;;;;5059554;28;20152;-70
2022/11/09 11:34:40;;;;;;;0.85;0.70;;;15.40;99.90;;;;;;5043145;28;20051;-69
2022/11/09 11:37:26;;;;;;;0.50;0.50;;;15.00;99.90;;;;;;5058959;28;20402;-70
2022/11/09 11:40:12;;;;;;;1.58;1.48;;;14.90;99.90;;;;;;5066186;28;20487;-69
2022/11/09 11:43:10;;;;;;;0.95;0.85;;;15.40;99.90;;;;;;5066448;28;20025;-70
2022/11/09 11:45:41;;;;;;;0.55;0.55;;;15.50;99.90;;;;;;5054631;28;20021;-70
2022/11/09 11:48:22;;;;;;;0.93;0.85;;;14.80;99.90;;;;;;5060194;28;20057;-71
2022/11/09 11:51:02;;;;;;;0.50;0.50;;;14.40;99.90;;;;;;5061413;28;20032;-72
2022/11/09 11:53:36;;;;;;;0.40;0.40;;;13.70;99.90;;;;;;5074696;28;20029;-71
2022/11/09 11:56:29;;;;;;;0.88;0.88;;;13.50;99.90;;;;;;5059282;28;20108;-71
2022/11/09 11:59:12;;;;;;;1.13;1.02;;;13.30;99.90;;;;;;5057492;28;20028;-72
2022/11/09 12:01:44;;;;;;;13.65;1.38;;;13.20;99.90;;;;;;5058332;28;20044;-71
2022/11/09 12:04:10;;;;;;;0.30;0.30;;;;;;;;;;5052511;28;20029;-70
2022/11/09 12:06:54;;;;;;;0.63;0.63;;;13.20;99.90;;;;;;5066106;28;20036;-71
2022/11/09 12:09:20;;;;;;;0.60;0.60;;;;;;;;;;5063001;28;20632;-72
2022/11/09 12:11:53;;;;;;;0.40;0.40;;;12.90;99.90;;;;;;5063888;28;20107;-72
2022/11/09 12:14:46;;;;;;;0.30;0.30;;;12.60;99.90;;;;;;5061747;28;20929;-71
2022/11/09 12:17:53;;;;;;;0.77;0.70;;;12.80;99.90;;;;;;5057317;28;20072;-70
2022/11/09 12:20:19;;;;;;;0.85;0.85;;;;;;;;;;5059067;28;20128;-71
2022/11/09 12:23:02;;;;;;;0.88;0.88;;;12.70;99.90;;;;;;5062447;28;20036;-69
2022/11/09 12:25:37;;;;;;;0.68;0.68;;;12.60;99.90;;;;;;5059614;28;20373;-71
2022/11/09 12:28:02;;;;;;;0.90;0.90;;;12.90;99.90;;;;;;5054480;28;20040;-70
2022/11/09 12:30:48;;;;;;;2.03;0.80;;;12.50;99.90;;;;;;5051047;28;20485;-68
2022/11/09 12:33:47;;;;;;;2.42;2.05;;;12.80;99.90;;;;;;5067889;28;20139;-68
2022/11/09 12:36:20;;;;;;;0.77;0.77;;;12.50;99.90;;;;;;5059060;28;20033;-68
2022/11/09 12:38:58;;;;;;;1.20;0.90;;;12.50;99.90;;;;;;5051382;28;20036;-69
2022/11/09 12:41:29;;;;;;;0.40;0.40;;;12.40;99.90;;;;;;5051081;28;20098;-69
2022/11/09 12:44:17;;;;;;;0.90;0.90;;;12.30;99.90;;;;;;5050672;28;20094;-67
2022/11/09 12:46:52;;;;;;;0.55;0.55;;;12.40;99.90;;;;;;5055954;28;20020;-69
2022/11/09 12:49:42;;;;;;;1.25;1.15;;;11.80;99.90;;;;;;5066051;28;20442;-69
2022/11/09 12:52:14;;;;;;;1.10;1.00;;;12.40;99.90;;;;;;5066681;28;20044;-68
2022/11/09 12:54:48;;;;;;;1.40;1.30;;;11.80;99.90;;;;;;5061755;28;20024;-69
2022/11/09 12:57:23;;;;;;;0.55;0.55;;;12.20;99.90;;;;;;5054368;28;20035;-69
2022/11/09 12:59:52;;;;;;;0.90;0.90;;;12.40;99.90;;;;;;5056699;28;20029;-71
2022/11/09 13:02:29;;;;;;;2.42;1.65;;;11.70;99.90;;;;;;5050612;28;20444;-70
2022/11/09 13:05:00;;;;;;;0.38;0.38;;;11.50;99.90;;;;;;5060279;28;20017;-72
2022/11/09 13:07:40;;;;;;;0.85;0.82;;;12.20;99.90;;;;;;5062439;28;20459;-70
2022/11/09 13:10:21;;;;;;;0.60;0.60;;;12.20;99.90;;;;;;5045948;28;20047;-70
2022/11/09 13:12:47;;;;;;;0.82;0.82;;;12.10;99.90;;;;;;5054755;28;20036;-69